Current | Forecast
Updated: 5:30 AM +08 on December 14, 2017
Observed at Irkutsk, Russia
Temperature -6°F
Humidity 84%
Dew Point -9°F
Wind North at 0 mph
Pressure 30.48 in (Steady)
Conditions Light Snow Showers
Visibility 6.2 miles
UV 0 out of 16
Clouds Mostly Cloudy (BKN) : 1600 ft
Yesterday's Maximum 5°F
Yesterday's Minimum -4°F approx.
Yesterday's Heating Degree Days 65 approx.
Sunrise9:04 AM +08
Sunset4:50 PM +08
Moon Rise4:25 AM +08
Moon Set3:11 PM +08
Moon PhaseMoon Phase
Waning Crescent
Raw METARMETAR UIII 132130Z 00000MPS 9999 -SHSN BKN016CB M21/M23 Q1032 R12/490345 NOSIG RMK QFE731/0975


Monday
. High: 60° F.
Tuesday
. High: 44° F.
Wednesday
. High: 48° F.
Thursday
. High: 48° F.
Friday
. High: 53° F.
Saturday
. High: 60° F.
Sunday
. High: 62° F.
Monday
. High: 71° F.

Units: English | Metric

Find the Weather for any City, State or Zipcode, or Country:

U.S. State List | Severe Weather | Tropical Storms | Ski Conditions
United States | Canada | Central America | South America | Asia | Europe | Australia | Africa | Islands

Weather Underground

© Copyright 2017
The Weather Company, LLC